sensor_id;sensor_type;location;lat;lon;timestamp;pressure;altitude;pressure_sealevel;temperature;humidity
74310;BME280;62722;51.142;17.052;2023-05-31T00:02:03;100962.59;;;11.98;70.21
74310;BME280;62722;51.142;17.052;2023-05-31T00:04:33;100967.03;;;11.98;70.15
74310;BME280;62722;51.142;17.052;2023-05-31T00:07:00;100968.94;;;11.96;70.48
74310;BME280;62722;51.142;17.052;2023-05-31T00:09:28;100961.38;;;11.90;69.96
74310;BME280;62722;51.142;17.052;2023-05-31T00:11:55;100968.53;;;11.88;70.45
74310;BME280;62722;51.142;17.052;2023-05-31T00:14:23;100964.19;;;11.87;70.05
74310;BME280;62722;51.142;17.052;2023-05-31T00:16:52;100973.25;;;11.83;70.00
74310;BME280;62722;51.142;17.052;2023-05-31T00:19:19;100966.59;;;11.76;70.44
74310;BME280;62722;51.142;17.052;2023-05-31T00:21:49;100975.66;;;11.71;70.22
74310;BME280;62722;51.142;17.052;2023-05-31T00:24:17;100977.91;;;11.63;70.20
74310;BME280;62722;51.142;17.052;2023-05-31T00:26:45;100977.91;;;11.63;70.41
74310;BME280;62722;51.142;17.052;2023-05-31T00:29:13;100970.41;;;11.56;70.18
74310;BME280;62722;51.142;17.052;2023-05-31T00:31:40;100973.31;;;11.51;70.42
74310;BME280;62722;51.142;17.052;2023-05-31T00:34:08;100978.59;;;11.51;70.42
74310;BME280;62722;51.142;17.052;2023-05-31T00:36:38;100971.78;;;11.47;70.58
74310;BME280;62722;51.142;17.052;2023-05-31T00:39:07;100969.22;;;11.46;70.81
74310;BME280;62722;51.142;17.052;2023-05-31T00:41:34;100973.09;;;11.40;71.05
74310;BME280;62722;51.142;17.052;2023-05-31T00:44:02;100983.72;;;11.39;71.39
74310;BME280;62722;51.142;17.052;2023-05-31T00:46:32;100976.09;;;11.34;71.35
74310;BME280;62722;51.142;17.052;2023-05-31T00:49:02;100976.16;;;11.33;71.54
74310;BME280;62722;51.142;17.052;2023-05-31T00:51:30;100962.09;;;11.32;71.71
74310;BME280;62722;51.142;17.052;2023-05-31T00:53:59;100967.75;;;11.26;71.86
74310;BME280;62722;51.142;17.052;2023-05-31T00:56:30;100977.47;;;11.26;72.54
74310;BME280;62722;51.142;17.052;2023-05-31T00:58:59;100976.78;;;11.22;72.21
74310;BME280;62722;51.142;17.052;2023-05-31T01:01:27;100972.00;;;11.29;72.54
74310;BME280;62722;51.142;17.052;2023-05-31T01:03:59;100969.72;;;11.22;71.87
74310;BME280;62722;51.142;17.052;2023-05-31T01:06:27;100966.47;;;11.17;72.21
74310;BME280;62722;51.142;17.052;2023-05-31T01:08:59;100968.78;;;11.08;72.63
74310;BME280;62722;51.142;17.052;2023-05-31T01:11:39;100974.06;;;11.08;72.91
74310;BME280;62722;51.142;17.052;2023-05-31T01:14:20;100974.06;;;11.08;72.49
74310;BME280;62722;51.142;17.052;2023-05-31T01:16:53;100979.59;;;11.03;72.54
74310;BME280;62722;51.142;17.052;2023-05-31T01:19:32;100978.94;;;11.00;72.72
74310;BME280;62722;51.142;17.052;2023-05-31T01:22:13;100978.31;;;10.95;72.88
74310;BME280;62722;51.142;17.052;2023-05-31T01:24:54;100982.94;;;10.91;73.06
74310;BME280;62722;51.142;17.052;2023-05-31T01:27:29;100981.38;;;10.87;73.21
74310;BME280;62722;51.142;17.052;2023-05-31T01:29:59;100980.53;;;10.87;73.36
74310;BME280;62722;51.142;17.052;2023-05-31T01:32:28;100975.44;;;10.84;73.86
74310;BME280;62722;51.142;17.052;2023-05-31T01:34:56;100979.34;;;10.77;74.04
74310;BME280;62722;51.142;17.052;2023-05-31T01:37:23;100982.91;;;10.75;73.98
74310;BME280;62722;51.142;17.052;2023-05-31T01:39:51;100979.88;;;10.67;74.00
74310;BME280;62722;51.142;17.052;2023-05-31T01:42:20;100981.31;;;10.73;74.27
74310;BME280;62722;51.142;17.052;2023-05-31T01:44:51;100971.41;;;10.77;74.02
74310;BME280;62722;51.142;17.052;2023-05-31T01:47:20;100977.63;;;10.75;73.70
74310;BME280;62722;51.142;17.052;2023-05-31T01:49:49;100976.44;;;10.65;73.98
74310;BME280;62722;51.142;17.052;2023-05-31T01:52:17;100983.44;;;10.66;74.34
74310;BME280;62722;51.142;17.052;2023-05-31T01:54:46;100982.91;;;10.60;74.39
74310;BME280;62722;51.142;17.052;2023-05-31T01:57:14;100988.72;;;10.66;74.11
74310;BME280;62722;51.142;17.052;2023-05-31T01:59:42;100983.84;;;10.59;74.27
74310;BME280;62722;51.142;17.052;2023-05-31T02:02:12;100990.56;;;10.64;74.30
74310;BME280;62722;51.142;17.052;2023-05-31T02:04:40;100988.09;;;10.61;74.70
74310;BME280;62722;51.142;17.052;2023-05-31T02:07:07;100989.88;;;10.61;74.76
74310;BME280;62722;51.142;17.052;2023-05-31T02:09:35;100991.75;;;10.59;74.66
74310;BME280;62722;51.142;17.052;2023-05-31T02:12:03;100987.66;;;10.53;74.86
74310;BME280;62722;51.142;17.052;2023-05-31T02:14:31;100991.25;;;10.52;74.91
74310;BME280;62722;51.142;17.052;2023-05-31T02:16:58;100988.50;;;10.54;74.53
74310;BME280;62722;51.142;17.052;2023-05-31T02:19:28;100991.25;;;10.52;74.42
74310;BME280;62722;51.142;17.052;2023-05-31T02:21:57;100991.41;;;10.49;74.29
74310;BME280;62722;51.142;17.052;2023-05-31T02:24:25;101000.50;;;10.44;74.28
74310;BME280;62722;51.142;17.052;2023-05-31T02:26:54;100997.00;;;10.43;74.79
74310;BME280;62722;51.142;17.052;2023-05-31T02:29:22;100996.25;;;10.41;74.93
74310;BME280;62722;51.142;17.052;2023-05-31T02:31:49;100999.66;;;10.43;75.02
74310;BME280;62722;51.142;17.052;2023-05-31T02:34:17;101002.44;;;10.40;74.91
74310;BME280;62722;51.142;17.052;2023-05-31T02:36:46;100998.88;;;10.41;74.59
74310;BME280;62722;51.142;17.052;2023-05-31T02:39:14;101004.16;;;10.41;74.29
74310;BME280;62722;51.142;17.052;2023-05-31T02:41:42;101000.16;;;10.34;74.10
74310;BME280;62722;51.142;17.052;2023-05-31T02:44:09;101003.53;;;10.36;74.78
74310;BME280;62722;51.142;17.052;2023-05-31T02:46:37;100998.59;;;10.30;74.74
74310;BME280;62722;51.142;17.052;2023-05-31T02:49:05;101003.09;;;10.28;74.88
74310;BME280;62722;51.142;17.052;2023-05-31T02:51:33;101001.66;;;10.22;74.93
74310;BME280;62722;51.142;17.052;2023-05-31T02:54:02;100999.69;;;10.26;74.81
74310;BME280;62722;51.142;17.052;2023-05-31T02:56:30;100996.97;;;10.27;74.99
74310;BME280;62722;51.142;17.052;2023-05-31T02:58:58;101001.16;;;10.32;75.16
74310;BME280;62722;51.142;17.052;2023-05-31T03:01:26;100995.78;;;10.33;75.26
74310;BME280;62722;51.142;17.052;2023-05-31T03:03:53;100999.53;;;10.29;75.30
74310;BME280;62722;51.142;17.052;2023-05-31T03:06:21;101002.34;;;10.26;75.52
74310;BME280;62722;51.142;17.052;2023-05-31T03:08:50;101003.44;;;10.22;75.64
74310;BME280;62722;51.142;17.052;2023-05-31T03:11:18;100996.44;;;10.21;75.68
74310;BME280;62722;51.142;17.052;2023-05-31T03:13:46;101002.16;;;10.29;75.68
74310;BME280;62722;51.142;17.052;2023-05-31T03:16:14;101002.63;;;10.37;75.63
74310;BME280;62722;51.142;17.052;2023-05-31T03:18:42;101002.28;;;10.43;75.11
74310;BME280;62722;51.142;17.052;2023-05-31T03:21:10;101000.75;;;10.39;75.32
74310;BME280;62722;51.142;17.052;2023-05-31T03:23:37;101006.00;;;10.39;75.45
74310;BME280;62722;51.142;17.052;2023-05-31T03:26:05;101019.84;;;10.44;75.59
74310;BME280;62722;51.142;17.052;2023-05-31T03:28:34;101007.56;;;10.43;75.82
74310;BME280;62722;51.142;17.052;2023-05-31T03:31:01;101002.97;;;10.47;75.67
74310;BME280;62722;51.142;17.052;2023-05-31T03:33:29;101003.66;;;10.50;75.62
74310;BME280;62722;51.142;17.052;2023-05-31T03:35:57;101010.59;;;10.53;75.70
74310;BME280;62722;51.142;17.052;2023-05-31T03:38:25;100999.06;;;10.54;75.93
74310;BME280;62722;51.142;17.052;2023-05-31T03:40:52;100998.06;;;10.56;75.95
74310;BME280;62722;51.142;17.052;2023-05-31T03:43:20;101008.47;;;10.59;76.10
74310;BME280;62722;51.142;17.052;2023-05-31T03:45:48;101005.41;;;10.67;75.87
74310;BME280;62722;51.142;17.052;2023-05-31T03:48:16;101007.69;;;10.73;75.51
74310;BME280;62722;51.142;17.052;2023-05-31T03:50:44;101016.06;;;10.81;75.56
74310;BME280;62722;51.142;17.052;2023-05-31T03:53:12;101010.97;;;10.94;74.85
74310;BME280;62722;51.142;17.052;2023-05-31T03:55:39;101004.72;;;10.95;74.67
74310;BME280;62722;51.142;17.052;2023-05-31T03:58:07;101021.69;;;11.06;74.43
74310;BME280;62722;51.142;17.052;2023-05-31T04:00:34;101014.47;;;11.10;74.87
74310;BME280;62722;51.142;17.052;2023-05-31T04:03:04;101023.00;;;11.15;74.76
74310;BME280;62722;51.142;17.052;2023-05-31T04:05:31;101013.97;;;11.19;74.92
74310;BME280;62722;51.142;17.052;2023-05-31T04:07:59;101013.53;;;11.27;74.16
74310;BME280;62722;51.142;17.052;2023-05-31T04:10:27;101021.94;;;11.33;74.30
74310;BME280;62722;51.142;17.052;2023-05-31T04:12:55;101020.47;;;11.43;74.14
74310;BME280;62722;51.142;17.052;2023-05-31T04:15:22;101024.41;;;11.52;74.19
74310;BME280;62722;51.142;17.052;2023-05-31T04:17:50;101027.72;;;11.55;73.96
74310;BME280;62722;51.142;17.052;2023-05-31T04:20:19;101026.44;;;11.62;74.08
74310;BME280;62722;51.142;17.052;2023-05-31T04:22:47;101025.75;;;11.75;73.50
74310;BME280;62722;51.142;17.052;2023-05-31T04:25:15;101024.28;;;11.85;73.17
74310;BME280;62722;51.142;17.052;2023-05-31T04:27:43;101016.56;;;11.96;72.62
74310;BME280;62722;51.142;17.052;2023-05-31T04:30:11;101021.13;;;12.08;71.95
74310;BME280;62722;51.142;17.052;2023-05-31T04:32:39;101020.94;;;12.25;71.41
74310;BME280;62722;51.142;17.052;2023-05-31T04:35:07;101021.91;;;12.38;69.43
74310;BME280;62722;51.142;17.052;2023-05-31T04:37:38;101020.69;;;12.58;66.95
74310;BME280;62722;51.142;17.052;2023-05-31T04:40:06;101017.56;;;12.65;69.95
74310;BME280;62722;51.142;17.052;2023-05-31T04:42:36;101018.59;;;12.77;65.64
74310;BME280;62722;51.142;17.052;2023-05-31T04:45:04;101023.41;;;12.85;64.76
74310;BME280;62722;51.142;17.052;2023-05-31T04:47:33;101022.00;;;12.93;65.02
74310;BME280;62722;51.142;17.052;2023-05-31T04:50:01;101029.63;;;12.98;64.78
74310;BME280;62722;51.142;17.052;2023-05-31T04:52:30;101025.84;;;13.02;65.03
74310;BME280;62722;51.142;17.052;2023-05-31T04:55:00;101018.66;;;13.04;66.82
74310;BME280;62722;51.142;17.052;2023-05-31T04:57:28;101025.31;;;13.11;65.06
74310;BME280;62722;51.142;17.052;2023-05-31T04:59:56;101026.41;;;13.21;64.30
74310;BME280;62722;51.142;17.052;2023-05-31T05:02:24;101024.41;;;13.25;65.45
74310;BME280;62722;51.142;17.052;2023-05-31T05:04:52;101019.03;;;13.26;66.67
74310;BME280;62722;51.142;17.052;2023-05-31T05:07:20;101022.66;;;13.38;63.84
74310;BME280;62722;51.142;17.052;2023-05-31T05:09:47;101029.72;;;13.51;63.91
74310;BME280;62722;51.142;17.052;2023-05-31T05:12:17;101029.75;;;13.64;63.38
74310;BME280;62722;51.142;17.052;2023-05-31T05:14:44;101017.03;;;13.69;63.05
74310;BME280;62722;51.142;17.052;2023-05-31T05:17:12;101028.78;;;13.92;62.60
74310;BME280;62722;51.142;17.052;2023-05-31T05:19:39;101028.78;;;13.92;62.24
74310;BME280;62722;51.142;17.052;2023-05-31T05:22:07;101022.19;;;13.97;62.31
74310;BME280;62722;51.142;17.052;2023-05-31T05:24:35;101021.34;;;13.97;64.09
74310;BME280;62722;51.142;17.052;2023-05-31T05:27:02;101019.03;;;14.05;61.35
74310;BME280;62722;51.142;17.052;2023-05-31T05:29:31;101016.69;;;14.13;62.88
74310;BME280;62722;51.142;17.052;2023-05-31T05:31:59;101027.34;;;14.26;60.73
74310;BME280;62722;51.142;17.052;2023-05-31T05:34:26;101015.16;;;14.36;60.62
74310;BME280;62722;51.142;17.052;2023-05-31T05:36:54;101019.91;;;14.56;59.28
74310;BME280;62722;51.142;17.052;2023-05-31T05:39:23;101015.34;;;14.71;58.16
74310;BME280;62722;51.142;17.052;2023-05-31T05:41:51;101012.03;;;14.80;58.08
74310;BME280;62722;51.142;17.052;2023-05-31T05:44:18;101019.69;;;14.84;58.26
74310;BME280;62722;51.142;17.052;2023-05-31T05:46:47;101016.00;;;14.74;60.44
74310;BME280;62722;51.142;17.052;2023-05-31T05:49:15;101018.59;;;14.87;57.64
74310;BME280;62722;51.142;17.052;2023-05-31T05:51:42;101024.56;;;14.90;57.10
74310;BME280;62722;51.142;17.052;2023-05-31T05:54:10;101026.97;;;14.93;57.68
74310;BME280;62722;51.142;17.052;2023-05-31T05:56:37;101024.53;;;15.03;58.35
74310;BME280;62722;51.142;17.052;2023-05-31T05:59:05;101031.97;;;15.10;58.12
74310;BME280;62722;51.142;17.052;2023-05-31T06:01:33;101029.81;;;15.16;57.77
74310;BME280;62722;51.142;17.052;2023-05-31T06:04:02;101027.03;;;15.17;57.31
74310;BME280;62722;51.142;17.052;2023-05-31T06:06:30;101032.75;;;15.24;56.97
74310;BME280;62722;51.142;17.052;2023-05-31T06:08:58;101028.28;;;15.24;57.92
74310;BME280;62722;51.142;17.052;2023-05-31T06:11:25;101028.63;;;15.20;58.74
74310;BME280;62722;51.142;17.052;2023-05-31T06:13:52;101035.72;;;15.32;56.71
74310;BME280;62722;51.142;17.052;2023-05-31T06:16:23;101029.13;;;15.48;56.01
74310;BME280;62722;51.142;17.052;2023-05-31T06:18:50;101031.16;;;15.57;57.09
74310;BME280;62722;51.142;17.052;2023-05-31T06:21:19;101024.47;;;15.76;55.83
74310;BME280;62722;51.142;17.052;2023-05-31T06:23:47;101016.78;;;15.84;55.76
74310;BME280;62722;51.142;17.052;2023-05-31T06:26:14;101022.09;;;15.84;54.98
74310;BME280;62722;51.142;17.052;2023-05-31T06:28:42;101021.09;;;15.74;55.31
74310;BME280;62722;51.142;17.052;2023-05-31T06:31:09;101029.22;;;15.59;58.75
74310;BME280;62722;51.142;17.052;2023-05-31T06:33:37;101025.31;;;15.52;57.94
74310;BME280;62722;51.142;17.052;2023-05-31T06:36:05;101025.56;;;15.49;58.31
74310;BME280;62722;51.142;17.052;2023-05-31T06:38:34;101017.88;;;15.57;57.55
74310;BME280;62722;51.142;17.052;2023-05-31T06:41:01;101016.28;;;15.90;55.80
74310;BME280;62722;51.142;17.052;2023-05-31T06:43:29;101021.31;;;16.05;55.06
74310;BME280;62722;51.142;17.052;2023-05-31T06:45:56;101017.03;;;15.92;57.87
74310;BME280;62722;51.142;17.052;2023-05-31T06:48:24;101022.09;;;15.84;57.06
74310;BME280;62722;51.142;17.052;2023-05-31T06:50:52;101015.69;;;15.86;55.91
74310;BME280;62722;51.142;17.052;2023-05-31T06:53:19;101016.88;;;15.82;55.94
74310;BME280;62722;51.142;17.052;2023-05-31T06:55:48;101015.53;;;15.77;58.62
74310;BME280;62722;51.142;17.052;2023-05-31T06:58:16;101018.81;;;15.80;57.71
74310;BME280;62722;51.142;17.052;2023-05-31T07:00:44;101013.66;;;16.01;56.42
74310;BME280;62722;51.142;17.052;2023-05-31T07:03:11;101011.16;;;16.11;56.95
74310;BME280;62722;51.142;17.052;2023-05-31T07:05:39;101012.00;;;16.22;55.05
74310;BME280;62722;51.142;17.052;2023-05-31T07:08:09;100999.47;;;16.35;55.39
74310;BME280;62722;51.142;17.052;2023-05-31T07:10:37;101008.47;;;16.68;53.81
74310;BME280;62722;51.142;17.052;2023-05-31T07:13:06;101005.69;;;16.91;52.27
74310;BME280;62722;51.142;17.052;2023-05-31T07:15:34;101002.41;;;16.88;52.38
74310;BME280;62722;51.142;17.052;2023-05-31T07:18:01;101003.97;;;16.68;54.11
74310;BME280;62722;51.142;17.052;2023-05-31T07:20:29;101005.53;;;16.60;53.94
74310;BME280;62722;51.142;17.052;2023-05-31T07:22:57;101000.19;;;16.48;54.28
74310;BME280;62722;51.142;17.052;2023-05-31T07:25:24;100995.09;;;16.45;54.05
74310;BME280;62722;51.142;17.052;2023-05-31T07:27:51;100995.59;;;16.50;54.35
74310;BME280;62722;51.142;17.052;2023-05-31T07:30:20;100989.19;;;16.75;53.24
74310;BME280;62722;51.142;17.052;2023-05-31T07:32:48;101001.78;;;16.95;51.56
74310;BME280;62722;51.142;17.052;2023-05-31T07:35:15;100998.59;;;17.13;51.02
74310;BME280;62722;51.142;17.052;2023-05-31T07:37:42;101002.66;;;17.39;50.38
74310;BME280;62722;51.142;17.052;2023-05-31T07:40:10;100993.88;;;17.48;49.28
74310;BME280;62722;51.142;17.052;2023-05-31T07:42:39;100994.31;;;17.32;51.86
74310;BME280;62722;51.142;17.052;2023-05-31T07:45:10;100986.94;;;17.25;52.27
74310;BME280;62722;51.142;17.052;2023-05-31T07:47:38;100992.03;;;17.28;50.87
74310;BME280;62722;51.142;17.052;2023-05-31T07:50:07;100993.28;;;17.44;50.63
74310;BME280;62722;51.142;17.052;2023-05-31T07:52:34;100986.75;;;17.37;51.48
74310;BME280;62722;51.142;17.052;2023-05-31T07:55:02;100989.69;;;17.34;52.45
74310;BME280;62722;51.142;17.052;2023-05-31T07:57:29;100991.03;;;17.40;50.27
74310;BME280;62722;51.142;17.052;2023-05-31T07:59:57;100984.88;;;17.28;49.42
74310;BME280;62722;51.142;17.052;2023-05-31T08:02:24;100986.09;;;17.24;49.53
74310;BME280;62722;51.142;17.052;2023-05-31T08:04:53;100978.91;;;17.36;50.12
74310;BME280;62722;51.142;17.052;2023-05-31T08:07:25;100977.16;;;17.78;46.91
74310;BME280;62722;51.142;17.052;2023-05-31T08:09:53;100970.78;;;17.90;46.52
74310;BME280;62722;51.142;17.052;2023-05-31T08:12:20;100970.75;;;17.80;47.20
74310;BME280;62722;51.142;17.052;2023-05-31T08:14:47;100979.06;;;17.87;47.44
74310;BME280;62722;51.142;17.052;2023-05-31T08:17:15;100969.41;;;17.75;46.90
74310;BME280;62722;51.142;17.052;2023-05-31T08:19:42;100980.63;;;17.69;47.24
74310;BME280;62722;51.142;17.052;2023-05-31T08:22:11;100970.44;;;17.63;48.53
74310;BME280;62722;51.142;17.052;2023-05-31T08:24:38;100967.78;;;17.51;50.05
74310;BME280;62722;51.142;17.052;2023-05-31T08:27:06;100965.97;;;17.52;50.13
74310;BME280;62722;51.142;17.052;2023-05-31T08:29:33;100969.22;;;17.67;47.20
74310;BME280;62722;51.142;17.052;2023-05-31T08:32:01;100961.94;;;17.89;46.49
74310;BME280;62722;51.142;17.052;2023-05-31T08:34:28;100967.44;;;18.18;45.91
74310;BME280;62722;51.142;17.052;2023-05-31T08:36:55;100967.59;;;18.17;46.27
74310;BME280;62722;51.142;17.052;2023-05-31T08:39:25;100976.19;;;18.20;43.12
74310;BME280;62722;51.142;17.052;2023-05-31T08:41:58;100968.28;;;18.19;42.60
74310;BME280;62722;51.142;17.052;2023-05-31T08:44:28;100973.25;;;18.23;43.78
74310;BME280;62722;51.142;17.052;2023-05-31T08:46:57;100972.13;;;18.26;43.65
74310;BME280;62722;51.142;17.052;2023-05-31T08:49:26;100968.28;;;18.39;43.12
74310;BME280;62722;51.142;17.052;2023-05-31T08:51:53;100963.72;;;18.30;43.52
74310;BME280;62722;51.142;17.052;2023-05-31T08:54:24;100971.25;;;18.46;42.68
74310;BME280;62722;51.142;17.052;2023-05-31T08:56:52;100968.47;;;18.47;42.88
74310;BME280;62722;51.142;17.052;2023-05-31T08:59:20;100970.59;;;18.84;41.67
74310;BME280;62722;51.142;17.052;2023-05-31T09:01:49;100979.72;;;19.21;40.76
74310;BME280;62722;51.142;17.052;2023-05-31T09:04:16;100975.97;;;19.03;42.01
74310;BME280;62722;51.142;17.052;2023-05-31T09:06:44;100968.78;;;18.94;43.11
74310;BME280;62722;51.142;17.052;2023-05-31T09:09:11;100967.53;;;18.98;41.84
74310;BME280;62722;51.142;17.052;2023-05-31T09:11:40;100963.78;;;19.10;41.75
74310;BME280;62722;51.142;17.052;2023-05-31T09:14:08;100963.19;;;19.07;42.10
74310;BME280;62722;51.142;17.052;2023-05-31T09:16:35;100955.19;;;19.07;41.83
74310;BME280;62722;51.142;17.052;2023-05-31T09:19:05;100965.28;;;19.03;42.71
74310;BME280;62722;51.142;17.052;2023-05-31T09:21:38;100958.84;;;19.15;41.37
74310;BME280;62722;51.142;17.052;2023-05-31T09:24:07;100954.44;;;18.95;42.18
74310;BME280;62722;51.142;17.052;2023-05-31T09:26:34;100951.78;;;18.95;41.30
74310;BME280;62722;51.142;17.052;2023-05-31T09:29:06;100952.72;;;18.84;42.35
74310;BME280;62722;51.142;17.052;2023-05-31T09:31:33;100951.72;;;18.85;42.16
74310;BME280;62722;51.142;17.052;2023-05-31T09:34:01;100942.03;;;18.94;43.29
74310;BME280;62722;51.142;17.052;2023-05-31T09:36:29;100942.63;;;19.07;41.91
74310;BME280;62722;51.142;17.052;2023-05-31T09:38:59;100942.91;;;19.04;41.96
74310;BME280;62722;51.142;17.052;2023-05-31T09:41:30;100952.06;;;19.02;42.41
74310;BME280;62722;51.142;17.052;2023-05-31T09:43:58;100938.84;;;19.19;42.86
74310;BME280;62722;51.142;17.052;2023-05-31T09:46:27;100942.66;;;19.26;41.77
74310;BME280;62722;51.142;17.052;2023-05-31T09:48:59;100941.44;;;19.50;41.31
74310;BME280;62722;51.142;17.052;2023-05-31T09:51:27;100927.59;;;19.35;40.53
74310;BME280;62722;51.142;17.052;2023-05-31T09:53:55;100945.66;;;19.42;40.66
74310;BME280;62722;51.142;17.052;2023-05-31T09:56:24;100944.41;;;19.47;40.52
74310;BME280;62722;51.142;17.052;2023-05-31T09:58:56;100934.38;;;19.68;40.03
74310;BME280;62722;51.142;17.052;2023-05-31T10:01:23;100920.00;;;19.59;40.95
74310;BME280;62722;51.142;17.052;2023-05-31T10:03:53;100914.06;;;19.56;41.03
74310;BME280;62722;51.142;17.052;2023-05-31T10:06:21;100913.81;;;19.49;40.81
74310;BME280;62722;51.142;17.052;2023-05-31T10:08:50;100909.16;;;19.41;42.08
74310;BME280;62722;51.142;17.052;2023-05-31T10:11:19;100918.44;;;19.37;40.89
74310;BME280;62722;51.142;17.052;2023-05-31T10:13:50;100912.28;;;19.47;42.26
74310;BME280;62722;51.142;17.052;2023-05-31T10:16:21;100913.53;;;19.42;41.06
74310;BME280;62722;51.142;17.052;2023-05-31T10:18:51;100909.31;;;19.50;41.44
74310;BME280;62722;51.142;17.052;2023-05-31T10:21:22;100912.53;;;19.53;41.49
74310;BME280;62722;51.142;17.052;2023-05-31T10:23:57;100899.84;;;19.55;40.97
74310;BME280;62722;51.142;17.052;2023-05-31T10:26:31;100903.53;;;19.54;42.47
74310;BME280;62722;51.142;17.052;2023-05-31T10:29:10;100901.97;;;19.61;41.23
74310;BME280;62722;51.142;17.052;2023-05-31T10:31:42;100903.78;;;19.61;41.62
74310;BME280;62722;51.142;17.052;2023-05-31T10:34:19;100903.94;;;19.69;41.41
74310;BME280;62722;51.142;17.052;2023-05-31T10:37:05;100912.34;;;19.93;39.80
74310;BME280;62722;51.142;17.052;2023-05-31T10:39:39;100900.22;;;19.89;39.20
74310;BME280;62722;51.142;17.052;2023-05-31T10:42:17;100893.75;;;19.82;39.12
74310;BME280;62722;51.142;17.052;2023-05-31T10:44:52;100894.88;;;19.70;39.52
74310;BME280;62722;51.142;17.052;2023-05-31T10:47:28;100892.06;;;19.71;39.34
74310;BME280;62722;51.142;17.052;2023-05-31T10:50:01;100890.69;;;19.67;40.12
74310;BME280;62722;51.142;17.052;2023-05-31T10:52:30;100891.91;;;19.82;40.28
74310;BME280;62722;51.142;17.052;2023-05-31T10:55:16;100892.59;;;19.94;39.79
74310;BME280;62722;51.142;17.052;2023-05-31T10:57:43;100884.97;;;19.99;39.74
74310;BME280;62722;51.142;17.052;2023-05-31T11:00:12;100878.47;;;20.02;39.14
74310;BME280;62722;51.142;17.052;2023-05-31T11:02:46;100891.44;;;20.06;39.86
74310;BME280;62722;51.142;17.052;2023-05-31T11:05:19;100876.47;;;20.04;40.47
74310;BME280;62722;51.142;17.052;2023-05-31T11:07:49;100881.00;;;20.03;39.89
74310;BME280;62722;51.142;17.052;2023-05-31T11:10:25;100868.59;;;20.02;41.00
74310;BME280;62722;51.142;17.052;2023-05-31T11:12:56;100872.16;;;19.93;40.32
74310;BME280;62722;51.142;17.052;2023-05-31T11:15:38;100863.63;;;20.07;39.38
74310;BME280;62722;51.142;17.052;2023-05-31T11:18:07;100864.47;;;20.17;40.07
74310;BME280;62722;51.142;17.052;2023-05-31T11:20:36;100848.94;;;20.11;38.24
74310;BME280;62722;51.142;17.052;2023-05-31T11:23:24;100858.50;;;20.23;40.44
74310;BME280;62722;51.142;17.052;2023-05-31T11:26:09;100838.84;;;20.32;39.52
74310;BME280;62722;51.142;17.052;2023-05-31T11:28:57;100845.13;;;20.51;39.13
74310;BME280;62722;51.142;17.052;2023-05-31T11:32:00;100843.13;;;20.53;39.07
74310;BME280;62722;51.142;17.052;2023-05-31T11:34:29;100848.34;;;20.54;39.16
74310;BME280;62722;51.142;17.052;2023-05-31T11:36:59;100850.22;;;20.71;38.65
74310;BME280;62722;51.142;17.052;2023-05-31T11:39:28;100852.06;;;20.71;38.46
74310;BME280;62722;51.142;17.052;2023-05-31T11:41:57;100848.28;;;20.64;38.44
74310;BME280;62722;51.142;17.052;2023-05-31T11:44:28;100838.19;;;20.75;38.90
74310;BME280;62722;51.142;17.052;2023-05-31T11:46:59;100841.63;;;20.68;39.26
74310;BME280;62722;51.142;17.052;2023-05-31T11:49:29;100838.72;;;20.61;37.90
74310;BME280;62722;51.142;17.052;2023-05-31T11:51:57;100835.00;;;20.62;37.91
74310;BME280;62722;51.142;17.052;2023-05-31T11:54:30;100832.50;;;20.78;38.16
74310;BME280;62722;51.142;17.052;2023-05-31T11:57:02;100833.06;;;20.82;36.97
74310;BME280;62722;51.142;17.052;2023-05-31T11:59:31;100835.19;;;20.96;36.98
74310;BME280;62722;51.142;17.052;2023-05-31T12:02:00;100831.97;;;21.10;36.16
74310;BME280;62722;51.142;17.052;2023-05-31T12:04:32;100826.94;;;20.89;35.77
74310;BME280;62722;51.142;17.052;2023-05-31T12:07:00;100826.00;;;20.81;34.43
74310;BME280;62722;51.142;17.052;2023-05-31T12:09:29;100833.19;;;20.80;34.22
74310;BME280;62722;51.142;17.052;2023-05-31T12:11:56;100820.84;;;20.70;34.62
74310;BME280;62722;51.142;17.052;2023-05-31T12:14:24;100827.69;;;20.82;34.19
74310;BME280;62722;51.142;17.052;2023-05-31T12:17:03;100808.38;;;20.78;34.22
74310;BME280;62722;51.142;17.052;2023-05-31T12:19:42;100816.09;;;20.99;32.77
74310;BME280;62722;51.142;17.052;2023-05-31T12:22:09;100817.25;;;20.97;33.29
74310;BME280;62722;51.142;17.052;2023-05-31T12:24:47;100807.38;;;20.79;34.44
74310;BME280;62722;51.142;17.052;2023-05-31T12:27:15;100809.44;;;20.85;33.81
74310;BME280;62722;51.142;17.052;2023-05-31T12:29:42;100811.59;;;21.00;34.26
74310;BME280;62722;51.142;17.052;2023-05-31T12:32:10;100808.56;;;21.12;33.31
74310;BME280;62722;51.142;17.052;2023-05-31T12:34:37;100795.41;;;21.09;34.23
74310;BME280;62722;51.142;17.052;2023-05-31T12:37:06;100806.84;;;21.11;33.95
74310;BME280;62722;51.142;17.052;2023-05-31T12:39:34;100797.88;;;21.20;34.32
74310;BME280;62722;51.142;17.052;2023-05-31T12:42:05;100799.31;;;21.32;34.51
74310;BME280;62722;51.142;17.052;2023-05-31T12:44:33;100794.63;;;21.34;34.56
74310;BME280;62722;51.142;17.052;2023-05-31T12:47:03;100799.31;;;21.32;34.18
74310;BME280;62722;51.142;17.052;2023-05-31T12:49:33;100788.75;;;21.31;34.06
74310;BME280;62722;51.142;17.052;2023-05-31T12:52:02;100789.53;;;21.23;34.12